sensor_id;sensor_type;location;lat;lon;timestamp;pressure;altitude;pressure_sealevel;temperature;humidity
71778;BME280;59609;52.430;4.668;2023-02-26T00:00:36;102047.25;;;3.64;85.94
71778;BME280;59609;52.430;4.668;2023-02-26T00:03:01;102041.03;;;3.62;85.75
71778;BME280;59609;52.430;4.668;2023-02-26T00:05:26;102062.78;;;3.78;84.60
71778;BME280;59609;52.430;4.668;2023-02-26T00:07:52;102059.97;;;3.80;83.53
71778;BME280;59609;52.430;4.668;2023-02-26T00:10:17;102073.44;;;3.97;82.40
71778;BME280;59609;52.430;4.668;2023-02-26T00:12:44;102079.28;;;4.05;80.12
71778;BME280;59609;52.430;4.668;2023-02-26T00:15:10;102075.00;;;4.15;79.31
71778;BME280;59609;52.430;4.668;2023-02-26T00:20:21;102080.75;;;4.25;79.12
71778;BME280;59609;52.430;4.668;2023-02-26T00:22:46;102075.13;;;4.28;78.17
71778;BME280;59609;52.430;4.668;2023-02-26T00:25:12;102081.66;;;4.25;78.27
71778;BME280;59609;52.430;4.668;2023-02-26T00:27:38;102080.75;;;4.25;78.88
71778;BME280;59609;52.430;4.668;2023-02-26T00:30:05;102078.22;;;4.22;78.21
71778;BME280;59609;52.430;4.668;2023-02-26T00:32:32;102088.25;;;4.21;78.96
71778;BME280;59609;52.430;4.668;2023-02-26T00:34:58;102083.97;;;4.17;79.76
71778;BME280;59609;52.430;4.668;2023-02-26T00:37:30;102099.16;;;4.21;79.13
71778;BME280;59609;52.430;4.668;2023-02-26T00:42:33;102101.50;;;4.13;79.50
71778;BME280;59609;52.430;4.668;2023-02-26T00:44:58;102105.78;;;4.17;78.87
71778;BME280;59609;52.430;4.668;2023-02-26T00:47:30;102107.84;;;4.13;79.51
71778;BME280;59609;52.430;4.668;2023-02-26T00:50:15;102109.69;;;4.13;79.60
71778;BME280;59609;52.430;4.668;2023-02-26T00:55:21;102116.63;;;3.89;78.94
71778;BME280;59609;52.430;4.668;2023-02-26T00:57:47;102125.88;;;3.86;78.83
71778;BME280;59609;52.430;4.668;2023-02-26T01:00:13;102127.63;;;3.87;77.93
71778;BME280;59609;52.430;4.668;2023-02-26T01:02:40;102123.44;;;3.82;77.50
71778;BME280;59609;52.430;4.668;2023-02-26T01:05:06;102126.22;;;3.66;77.99
71778;BME280;59609;52.430;4.668;2023-02-26T01:07:39;102132.97;;;3.59;77.93
71778;BME280;59609;52.430;4.668;2023-02-26T01:10:07;102134.13;;;3.55;77.37
71778;BME280;59609;52.430;4.668;2023-02-26T01:12:32;102138.88;;;3.51;77.32
71778;BME280;59609;52.430;4.668;2023-02-26T01:14:58;102145.81;;;3.41;77.18
71778;BME280;59609;52.430;4.668;2023-02-26T01:17:32;102144.69;;;3.45;76.44
71778;BME280;59609;52.430;4.668;2023-02-26T01:20:16;102141.19;;;3.28;77.23
71778;BME280;59609;52.430;4.668;2023-02-26T01:25:15;102155.56;;;3.14;77.79
71778;BME280;59609;52.430;4.668;2023-02-26T01:27:42;102154.03;;;3.10;76.92
71778;BME280;59609;52.430;4.668;2023-02-26T01:30:08;102155.41;;;3.01;77.46
71778;BME280;59609;52.430;4.668;2023-02-26T01:35:41;102159.97;;;3.01;75.81
71778;BME280;59609;52.430;4.668;2023-02-26T01:41:05;102169.38;;;2.95;75.76
71778;BME280;59609;52.430;4.668;2023-02-26T01:43:38;102159.97;;;2.85;76.05
71778;BME280;59609;52.430;4.668;2023-02-26T01:46:17;102164.84;;;2.79;75.93
71778;BME280;59609;52.430;4.668;2023-02-26T01:48:50;102168.00;;;2.71;75.37
71778;BME280;59609;52.430;4.668;2023-02-26T01:51:17;102170.66;;;2.73;75.46
71778;BME280;59609;52.430;4.668;2023-02-26T01:53:43;102170.09;;;2.66;75.88
71778;BME280;59609;52.430;4.668;2023-02-26T01:56:17;102174.66;;;2.66;75.69
71778;BME280;59609;52.430;4.668;2023-02-26T01:58:45;102179.63;;;2.57;75.20
71778;BME280;59609;52.430;4.668;2023-02-26T02:01:12;102183.63;;;2.50;76.15
71778;BME280;59609;52.430;4.668;2023-02-26T02:03:39;102178.13;;;2.52;75.24
71778;BME280;59609;52.430;4.668;2023-02-26T02:06:18;102183.41;;;2.55;74.14
71778;BME280;59609;52.430;4.668;2023-02-26T02:08:45;102188.13;;;2.51;72.84
71778;BME280;59609;52.430;4.668;2023-02-26T02:11:11;102184.53;;;2.51;73.52
71778;BME280;59609;52.430;4.668;2023-02-26T02:18:48;102190.28;;;2.45;73.41
71778;BME280;59609;52.430;4.668;2023-02-26T02:32:10;102210.06;;;2.31;73.58
71778;BME280;59609;52.430;4.668;2023-02-26T02:34:52;102214.78;;;2.28;73.49
71778;BME280;59609;52.430;4.668;2023-02-26T02:37:33;102214.00;;;2.26;74.14
71778;BME280;59609;52.430;4.668;2023-02-26T02:40:05;102225.59;;;2.29;74.20
71778;BME280;59609;52.430;4.668;2023-02-26T02:43:00;102227.75;;;2.23;73.68
71778;BME280;59609;52.430;4.668;2023-02-26T02:45:33;102233.91;;;2.26;73.18
71778;BME280;59609;52.430;4.668;2023-02-26T02:48:15;102236.22;;;2.17;74.76
71778;BME280;59609;52.430;4.668;2023-02-26T02:50:46;102236.22;;;2.17;74.14
71778;BME280;59609;52.430;4.668;2023-02-26T02:53:17;102236.69;;;2.07;74.60
71778;BME280;59609;52.430;4.668;2023-02-26T02:56:00;102231.88;;;1.95;75.43
71778;BME280;59609;52.430;4.668;2023-02-26T02:58:32;102242.81;;;1.94;75.42
71778;BME280;59609;52.430;4.668;2023-02-26T03:01:02;102244.16;;;1.85;75.24
71778;BME280;59609;52.430;4.668;2023-02-26T03:03:59;102252.84;;;1.75;76.28
71778;BME280;59609;52.430;4.668;2023-02-26T03:06:26;102249.09;;;1.77;76.08
71778;BME280;59609;52.430;4.668;2023-02-26T03:08:52;102245.00;;;1.69;76.10
71778;BME280;59609;52.430;4.668;2023-02-26T03:11:17;102251.22;;;1.71;76.07
71778;BME280;59609;52.430;4.668;2023-02-26T03:13:43;102240.69;;;1.65;76.20
71778;BME280;59609;52.430;4.668;2023-02-26T03:25:11;102248.34;;;1.57;76.98
71778;BME280;59609;52.430;4.668;2023-02-26T03:28:08;102257.34;;;1.57;76.47
71778;BME280;59609;52.430;4.668;2023-02-26T03:30:46;102251.47;;;1.47;77.77
71778;BME280;59609;52.430;4.668;2023-02-26T03:38:49;102268.16;;;1.40;77.76
71778;BME280;59609;52.430;4.668;2023-02-26T03:41:31;102270.88;;;1.40;77.40
71778;BME280;59609;52.430;4.668;2023-02-26T03:44:01;102268.16;;;1.40;77.68
71778;BME280;59609;52.430;4.668;2023-02-26T03:46:42;102275.63;;;1.35;77.44
71778;BME280;59609;52.430;4.668;2023-02-26T03:49:13;102289.81;;;1.41;78.40
71778;BME280;59609;52.430;4.668;2023-02-26T03:51:43;102282.75;;;1.37;77.92
71778;BME280;59609;52.430;4.668;2023-02-26T03:54:17;102286.44;;;1.36;78.12
71778;BME280;59609;52.430;4.668;2023-02-26T03:56:46;102279.44;;;1.31;77.90
71778;BME280;59609;52.430;4.668;2023-02-26T03:59:12;102288.72;;;1.27;78.22
71778;BME280;59609;52.430;4.668;2023-02-26T04:01:52;102293.25;;;1.26;79.01
71778;BME280;59609;52.430;4.668;2023-02-26T04:04:23;102288.56;;;1.30;79.12
71778;BME280;59609;52.430;4.668;2023-02-26T04:06:51;102289.72;;;1.24;78.85
71778;BME280;59609;52.430;4.668;2023-02-26T04:09:18;102287.28;;;1.18;78.54
71778;BME280;59609;52.430;4.668;2023-02-26T04:11:45;102303.56;;;1.18;79.27
71778;BME280;59609;52.430;4.668;2023-02-26T04:14:11;102309.00;;;1.18;79.35
71778;BME280;59609;52.430;4.668;2023-02-26T04:16:36;102314.44;;;1.18;80.48
71778;BME280;59609;52.430;4.668;2023-02-26T04:19:01;102315.91;;;1.25;79.81
71778;BME280;59609;52.430;4.668;2023-02-26T04:21:27;102321.63;;;1.38;79.99
71778;BME280;59609;52.430;4.668;2023-02-26T04:23:52;102319.47;;;1.46;79.74
71778;BME280;59609;52.430;4.668;2023-02-26T04:26:18;102325.47;;;1.52;79.96
71778;BME280;59609;52.430;4.668;2023-02-26T04:28:43;102322.63;;;1.55;79.52
71778;BME280;59609;52.430;4.668;2023-02-26T04:31:08;102336.69;;;1.64;80.21
71778;BME280;59609;52.430;4.668;2023-02-26T04:33:37;102334.66;;;1.69;79.26
71778;BME280;59609;52.430;4.668;2023-02-26T04:36:02;102336.63;;;1.65;79.49
71778;BME280;59609;52.430;4.668;2023-02-26T04:38:29;102334.72;;;1.67;80.08
71778;BME280;59609;52.430;4.668;2023-02-26T04:40:54;102332.53;;;1.75;79.81
71778;BME280;59609;52.430;4.668;2023-02-26T04:43:19;102347.00;;;1.76;79.75
71778;BME280;59609;52.430;4.668;2023-02-26T04:45:46;102346.25;;;1.72;80.56
71778;BME280;59609;52.430;4.668;2023-02-26T04:48:12;102354.41;;;1.72;80.64
71778;BME280;59609;52.430;4.668;2023-02-26T04:50:37;102348.03;;;1.73;80.32
71778;BME280;59609;52.430;4.668;2023-02-26T04:53:03;102353.81;;;1.66;81.22
71778;BME280;59609;52.430;4.668;2023-02-26T04:55:28;102352.97;;;1.64;80.97
71778;BME280;59609;52.430;4.668;2023-02-26T04:57:54;102358.50;;;1.62;81.56
71778;BME280;59609;52.430;4.668;2023-02-26T05:00:19;102356.09;;;1.56;80.95
71778;BME280;59609;52.430;4.668;2023-02-26T05:02:45;102364.28;;;1.54;81.98
71778;BME280;59609;52.430;4.668;2023-02-26T05:05:10;102361.28;;;1.61;81.84
71778;BME280;59609;52.430;4.668;2023-02-26T05:07:36;102366.22;;;1.52;82.18
71778;BME280;59609;52.430;4.668;2023-02-26T05:10:03;102372.38;;;1.56;81.94
71778;BME280;59609;52.430;4.668;2023-02-26T05:12:29;102372.88;;;1.45;82.48
71778;BME280;59609;52.430;4.668;2023-02-26T05:14:55;102376.19;;;1.52;82.39
71778;BME280;59609;52.430;4.668;2023-02-26T05:17:20;102379.09;;;1.47;81.53
71778;BME280;59609;52.430;4.668;2023-02-26T05:19:45;102379.41;;;1.41;82.10
71778;BME280;59609;52.430;4.668;2023-02-26T05:22:10;102375.19;;;1.34;82.67
71778;BME280;59609;52.430;4.668;2023-02-26T05:24:36;102368.88;;;1.34;82.04
71778;BME280;59609;52.430;4.668;2023-02-26T05:27:02;102376.19;;;1.33;82.20
71778;BME280;59609;52.430;4.668;2023-02-26T05:29:27;102380.78;;;1.31;82.96
71778;BME280;59609;52.430;4.668;2023-02-26T05:31:52;102388.25;;;1.26;83.63
71778;BME280;59609;52.430;4.668;2023-02-26T05:34:18;102387.38;;;1.26;83.26
71778;BME280;59609;52.430;4.668;2023-02-26T05:36:43;102372.22;;;1.20;83.30
71778;BME280;59609;52.430;4.668;2023-02-26T05:39:09;102388.41;;;1.23;83.23
71778;BME280;59609;52.430;4.668;2023-02-26T05:41:34;102389.63;;;1.16;83.11
71778;BME280;59609;52.430;4.668;2023-02-26T05:44:00;102390.56;;;1.15;83.21
71778;BME280;59609;52.430;4.668;2023-02-26T05:46:26;102393.28;;;1.15;83.55
71778;BME280;59609;52.430;4.668;2023-02-26T05:48:52;102395.19;;;1.13;83.34
71778;BME280;59609;52.430;4.668;2023-02-26T05:51:17;102403.38;;;1.12;83.66
71778;BME280;59609;52.430;4.668;2023-02-26T05:53:43;102407.13;;;1.09;84.15
71778;BME280;59609;52.430;4.668;2023-02-26T05:56:09;102408.81;;;1.12;83.65
71778;BME280;59609;52.430;4.668;2023-02-26T05:58:34;102424.22;;;1.11;83.78
71778;BME280;59609;52.430;4.668;2023-02-26T06:01:00;102425.38;;;1.06;84.16
71778;BME280;59609;52.430;4.668;2023-02-26T06:03:26;102435.16;;;1.10;83.92
71778;BME280;59609;52.430;4.668;2023-02-26T06:05:51;102421.91;;;1.02;84.06
71778;BME280;59609;52.430;4.668;2023-02-26T06:08:16;102430.72;;;1.07;83.77
71778;BME280;59609;52.430;4.668;2023-02-26T06:10:42;102430.06;;;1.02;84.18
71778;BME280;59609;52.430;4.668;2023-02-26T06:13:08;102437.78;;;1.11;83.79
71778;BME280;59609;52.430;4.668;2023-02-26T06:15:33;102440.50;;;1.11;83.86
71778;BME280;59609;52.430;4.668;2023-02-26T06:17:58;102438.66;;;1.12;83.58
71778;BME280;59609;52.430;4.668;2023-02-26T06:20:24;102435.06;;;1.11;83.58
71778;BME280;59609;52.430;4.668;2023-02-26T06:22:49;102451.44;;;1.10;83.72
71778;BME280;59609;52.430;4.668;2023-02-26T06:25:15;102453.25;;;1.09;83.66
71778;BME280;59609;52.430;4.668;2023-02-26T06:27:41;102455.84;;;1.12;83.59
71778;BME280;59609;52.430;4.668;2023-02-26T06:30:06;102467.44;;;1.16;83.09
71778;BME280;59609;52.430;4.668;2023-02-26T06:32:32;102467.63;;;1.11;83.04
71778;BME280;59609;52.430;4.668;2023-02-26T06:34:58;102466.22;;;1.02;83.75
71778;BME280;59609;52.430;4.668;2023-02-26T06:37:23;102487.66;;;1.09;83.06
71778;BME280;59609;52.430;4.668;2023-02-26T06:39:49;102486.84;;;1.07;84.05
71778;BME280;59609;52.430;4.668;2023-02-26T06:42:14;102486.91;;;1.05;83.87
71778;BME280;59609;52.430;4.668;2023-02-26T06:44:39;102475.91;;;1.08;83.69
71778;BME280;59609;52.430;4.668;2023-02-26T06:47:05;102487.34;;;1.16;83.79
71778;BME280;59609;52.430;4.668;2023-02-26T06:49:30;102499.75;;;1.22;83.87
71778;BME280;59609;52.430;4.668;2023-02-26T06:51:56;102503.25;;;1.24;83.70
71778;BME280;59609;52.430;4.668;2023-02-26T06:54:21;102489.50;;;1.28;83.33
71778;BME280;59609;52.430;4.668;2023-02-26T06:56:46;102509.06;;;1.36;83.71
71778;BME280;59609;52.430;4.668;2023-02-26T06:59:12;102503.50;;;1.39;83.80
71778;BME280;59609;52.430;4.668;2023-02-26T07:01:39;102518.22;;;1.54;82.96
71778;BME280;59609;52.430;4.668;2023-02-26T07:04:05;102521.75;;;1.56;82.35
71778;BME280;59609;52.430;4.668;2023-02-26T07:06:31;102531.53;;;1.60;81.86
71778;BME280;59609;52.430;4.668;2023-02-26T07:08:56;102533.22;;;1.63;82.04
71778;BME280;59609;52.430;4.668;2023-02-26T07:11:22;102544.75;;;1.68;82.00
71778;BME280;59609;52.430;4.668;2023-02-26T07:13:48;102539.13;;;1.72;81.74
71778;BME280;59609;52.430;4.668;2023-02-26T07:16:15;102535.84;;;1.84;80.82
71778;BME280;59609;52.430;4.668;2023-02-26T07:18:40;102534.72;;;2.08;79.57
71778;BME280;59609;52.430;4.668;2023-02-26T07:21:06;102545.59;;;2.08;79.93
71778;BME280;59609;52.430;4.668;2023-02-26T07:23:31;102547.88;;;2.18;80.09
71778;BME280;59609;52.430;4.668;2023-02-26T07:25:57;102553.22;;;2.39;78.36
71778;BME280;59609;52.430;4.668;2023-02-26T07:28:23;102541.38;;;2.59;77.95
71778;BME280;59609;52.430;4.668;2023-02-26T07:30:49;102561.69;;;3.06;76.51
71778;BME280;59609;52.430;4.668;2023-02-26T07:33:17;102555.88;;;3.31;74.43
71778;BME280;59609;52.430;4.668;2023-02-26T07:35:42;102550.59;;;3.62;72.19
71778;BME280;59609;52.430;4.668;2023-02-26T07:38:07;102565.63;;;4.37;71.74
71778;BME280;59609;52.430;4.668;2023-02-26T07:40:33;102566.19;;;4.43;68.57
71778;BME280;59609;52.430;4.668;2023-02-26T07:42:58;102566.53;;;4.68;68.20
71778;BME280;59609;52.430;4.668;2023-02-26T07:45:24;102563.88;;;4.36;68.51
71778;BME280;59609;52.430;4.668;2023-02-26T07:47:51;102575.44;;;4.72;66.56
71778;BME280;59609;52.430;4.668;2023-02-26T07:50:17;102560.41;;;4.96;65.73
71778;BME280;59609;52.430;4.668;2023-02-26T07:52:43;102575.06;;;5.25;65.13
71778;BME280;59609;52.430;4.668;2023-02-26T07:55:09;102579.66;;;5.25;64.60
71778;BME280;59609;52.430;4.668;2023-02-26T07:57:35;102583.00;;;4.67;66.87
71778;BME280;59609;52.430;4.668;2023-02-26T08:00:00;102576.44;;;4.87;66.02
71778;BME280;59609;52.430;4.668;2023-02-26T08:02:26;102583.28;;;4.62;67.67
71778;BME280;59609;52.430;4.668;2023-02-26T08:04:51;102573.38;;;4.44;67.36
71778;BME280;59609;52.430;4.668;2023-02-26T08:07:17;102591.34;;;4.48;68.25
71778;BME280;59609;52.430;4.668;2023-02-26T08:09:44;102581.84;;;4.40;68.23
71778;BME280;59609;52.430;4.668;2023-02-26T08:12:09;102589.34;;;4.19;68.95
71778;BME280;59609;52.430;4.668;2023-02-26T08:14:34;102584.47;;;4.41;67.80
71778;BME280;59609;52.430;4.668;2023-02-26T08:17:00;102585.88;;;4.48;67.24
71778;BME280;59609;52.430;4.668;2023-02-26T08:19:25;102588.09;;;4.57;67.64
71778;BME280;59609;52.430;4.668;2023-02-26T08:21:50;102585.53;;;4.54;66.69
71778;BME280;59609;52.430;4.668;2023-02-26T08:24:16;102593.91;;;4.51;67.26
71778;BME280;59609;52.430;4.668;2023-02-26T08:26:41;102595.09;;;4.63;66.95
71778;BME280;59609;52.430;4.668;2023-02-26T08:29:07;102602.22;;;4.65;66.89
71778;BME280;59609;52.430;4.668;2023-02-26T08:31:32;102595.78;;;4.66;66.31
71778;BME280;59609;52.430;4.668;2023-02-26T08:33:59;102612.88;;;4.70;66.41
71778;BME280;59609;52.430;4.668;2023-02-26T08:36:40;102609.53;;;4.81;66.76
71778;BME280;59609;52.430;4.668;2023-02-26T08:39:05;102612.47;;;4.93;66.65
71778;BME280;59609;52.430;4.668;2023-02-26T08:41:31;102623.63;;;4.89;65.92
71778;BME280;59609;52.430;4.668;2023-02-26T08:43:59;102626.47;;;5.03;66.04
71778;BME280;59609;52.430;4.668;2023-02-26T08:46:25;102637.22;;;5.06;66.05
71778;BME280;59609;52.430;4.668;2023-02-26T08:48:50;102638.34;;;5.17;66.05
71778;BME280;59609;52.430;4.668;2023-02-26T08:51:16;102632.72;;;5.20;66.35
71778;BME280;59609;52.430;4.668;2023-02-26T08:53:42;102637.81;;;5.42;66.25
71778;BME280;59609;52.430;4.668;2023-02-26T08:56:10;102646.19;;;5.55;65.43
71778;BME280;59609;52.430;4.668;2023-02-26T08:58:35;102652.72;;;5.52;65.19
71778;BME280;59609;52.430;4.668;2023-02-26T09:01:01;102646.34;;;5.52;64.72
71778;BME280;59609;52.430;4.668;2023-02-26T09:03:26;102653.09;;;5.92;62.87
71778;BME280;59609;52.430;4.668;2023-02-26T09:05:52;102662.25;;;6.06;61.40
71778;BME280;59609;52.430;4.668;2023-02-26T09:08:17;102657.97;;;5.87;60.42
71778;BME280;59609;52.430;4.668;2023-02-26T09:10:45;102658.19;;;5.98;60.73
71778;BME280;59609;52.430;4.668;2023-02-26T09:13:10;102666.59;;;5.95;60.10
71778;BME280;59609;52.430;4.668;2023-02-26T09:15:35;102682.03;;;5.96;59.53
71778;BME280;59609;52.430;4.668;2023-02-26T09:18:01;102674.09;;;5.76;59.65
71778;BME280;59609;52.430;4.668;2023-02-26T09:20:26;102673.44;;;6.02;59.09
71778;BME280;59609;52.430;4.668;2023-02-26T09:22:52;102686.88;;;6.06;58.43
71778;BME280;59609;52.430;4.668;2023-02-26T09:25:17;102688.22;;;5.68;57.85
71778;BME280;59609;52.430;4.668;2023-02-26T09:27:42;102693.50;;;5.71;58.36
71778;BME280;59609;52.430;4.668;2023-02-26T09:30:08;102696.59;;;5.65;58.67
71778;BME280;59609;52.430;4.668;2023-02-26T09:32:34;102705.31;;;5.71;57.95
71778;BME280;59609;52.430;4.668;2023-02-26T09:34:59;102702.78;;;6.14;57.36
71778;BME280;59609;52.430;4.668;2023-02-26T09:37:26;102708.31;;;5.98;57.20
71778;BME280;59609;52.430;4.668;2023-02-26T09:39:52;102702.53;;;6.62;56.88
71778;BME280;59609;52.430;4.668;2023-02-26T09:42:40;102697.94;;;6.91;54.76
71778;BME280;59609;52.430;4.668;2023-02-26T09:45:23;102704.22;;;6.93;54.78
71778;BME280;59609;52.430;4.668;2023-02-26T09:47:51;102709.47;;;6.68;53.24
71778;BME280;59609;52.430;4.668;2023-02-26T09:50:19;102717.28;;;6.74;53.73
71778;BME280;59609;52.430;4.668;2023-02-26T09:52:56;102719.56;;;7.10;52.92
71778;BME280;59609;52.430;4.668;2023-02-26T09:57:51;102727.59;;;6.99;53.25
71778;BME280;59609;52.430;4.668;2023-02-26T10:06:14;102742.16;;;6.85;52.68
71778;BME280;59609;52.430;4.668;2023-02-26T10:11:28;102752.25;;;6.99;54.07
71778;BME280;59609;52.430;4.668;2023-02-26T10:14:03;102738.47;;;7.00;53.20
71778;BME280;59609;52.430;4.668;2023-02-26T10:16:34;102748.16;;;7.06;53.51
71778;BME280;59609;52.430;4.668;2023-02-26T10:19:10;102750.19;;;7.31;53.52
71778;BME280;59609;52.430;4.668;2023-02-26T10:21:44;102746.38;;;7.19;54.28
71778;BME280;59609;52.430;4.668;2023-02-26T10:24:24;102763.19;;;6.85;54.13
71778;BME280;59609;52.430;4.668;2023-02-26T10:27:04;102765.66;;;6.89;53.37
71778;BME280;59609;52.430;4.668;2023-02-26T10:29:44;102763.59;;;7.35;52.54
71778;BME280;59609;52.430;4.668;2023-02-26T10:32:32;102771.84;;;7.07;53.13
71778;BME280;59609;52.430;4.668;2023-02-26T10:37:57;102775.53;;;6.92;53.72
71778;BME280;59609;52.430;4.668;2023-02-26T10:40:36;102772.78;;;7.34;53.17
71778;BME280;59609;52.430;4.668;2023-02-26T10:46:09;102770.56;;;7.82;52.02
71778;BME280;59609;52.430;4.668;2023-02-26T10:51:34;102786.25;;;8.20;51.82
71778;BME280;59609;52.430;4.668;2023-02-26T10:54:19;102783.31;;;8.50;50.30
71778;BME280;59609;52.430;4.668;2023-02-26T10:56:45;102761.03;;;9.18;48.64
71778;BME280;59609;52.430;4.668;2023-02-26T10:59:11;102763.75;;;9.43;48.68
71778;BME280;59609;52.430;4.668;2023-02-26T11:01:36;102778.72;;;9.39;48.40
71778;BME280;59609;52.430;4.668;2023-02-26T11:04:10;102785.28;;;9.62;46.97
71778;BME280;59609;52.430;4.668;2023-02-26T11:09:31;102786.44;;;9.09;48.22
71778;BME280;59609;52.430;4.668;2023-02-26T11:14:31;102788.84;;;9.01;48.89
71778;BME280;59609;52.430;4.668;2023-02-26T11:17:00;102784.25;;;9.14;48.69
71778;BME280;59609;52.430;4.668;2023-02-26T11:19:30;102779.19;;;9.08;48.69
71778;BME280;59609;52.430;4.668;2023-02-26T11:21:56;102785.13;;;8.89;50.22
71778;BME280;59609;52.430;4.668;2023-02-26T11:24:44;102784.91;;;9.05;50.23
71778;BME280;59609;52.430;4.668;2023-02-26T11:27:15;102786.53;;;8.95;48.90
71778;BME280;59609;52.430;4.668;2023-02-26T11:29:44;102786.44;;;9.09;48.64
71778;BME280;59609;52.430;4.668;2023-02-26T11:32:22;102795.03;;;9.29;49.08
71778;BME280;59609;52.430;4.668;2023-02-26T11:34:50;102780.28;;;8.93;49.77
71778;BME280;59609;52.430;4.668;2023-02-26T11:37:22;102767.41;;;9.06;49.43
71778;BME280;59609;52.430;4.668;2023-02-26T11:39:57;102767.94;;;9.49;49.68
71778;BME280;59609;52.430;4.668;2023-02-26T11:42:26;102773.63;;;9.58;48.70
71778;BME280;59609;52.430;4.668;2023-02-26T11:44:52;102763.69;;;9.68;47.81
71778;BME280;59609;52.430;4.668;2023-02-26T11:47:29;102769.00;;;9.59;48.27
71778;BME280;59609;52.430;4.668;2023-02-26T11:50:00;102769.16;;;10.41;47.91
71778;BME280;59609;52.430;4.668;2023-02-26T11:55:05;102766.19;;;10.08;46.28
71778;BME280;59609;52.430;4.668;2023-02-26T11:57:41;102772.16;;;10.38;46.51
71778;BME280;59609;52.430;4.668;2023-02-26T12:00:19;102765.56;;;10.17;46.62
71778;BME280;59609;52.430;4.668;2023-02-26T12:02:45;102778.97;;;9.36;47.53
71778;BME280;59609;52.430;4.668;2023-02-26T12:05:13;102775.78;;;9.17;49.56
71778;BME280;59609;52.430;4.668;2023-02-26T12:07:40;102776.78;;;9.03;48.49
71778;BME280;59609;52.430;4.668;2023-02-26T12:10:16;102785.13;;;8.89;49.47
71778;BME280;59609;52.430;4.668;2023-02-26T12:13:38;102774.56;;;8.96;49.78
71778;BME280;59609;52.430;4.668;2023-02-26T12:15:57;102780.81;;;8.72;49.93
71778;BME280;59609;52.430;4.668;2023-02-26T12:21:01;102780.38;;;8.78;50.60
71778;BME280;59609;52.430;4.668;2023-02-26T12:23:59;102775.38;;;8.46;50.41
71778;BME280;59609;52.430;4.668;2023-02-26T12:35:04;102770.59;;;9.12;51.44
71778;BME280;59609;52.430;4.668;2023-02-26T12:38:01;102763.56;;;9.21;49.84
71778;BME280;59609;52.430;4.668;2023-02-26T12:41:00;102764.53;;;9.45;49.36
71778;BME280;59609;52.430;4.668;2023-02-26T12:54:00;102766.88;;;9.26;49.22
71778;BME280;59609;52.430;4.668;2023-02-26T13:21:21;102772.69;;;9.21;51.32
71778;BME280;59609;52.430;4.668;2023-02-26T13:23:53;102765.97;;;9.38;50.74
71778;BME280;59609;52.430;4.668;2023-02-26T13:26:22;102775.34;;;9.23;52.26
71778;BME280;59609;52.430;4.668;2023-02-26T13:28:55;102775.31;;;8.98;50.21
71778;BME280;59609;52.430;4.668;2023-02-26T13:33:58;102776.44;;;8.31;52.28
71778;BME280;59609;52.430;4.668;2023-02-26T13:36:26;102785.28;;;8.61;51.15
71778;BME280;59609;52.430;4.668;2023-02-26T13:39:13;102775.88;;;8.90;50.98
71778;BME280;59609;52.430;4.668;2023-02-26T13:41:48;102769.94;;;8.96;51.12
71778;BME280;59609;52.430;4.668;2023-02-26T13:52:23;102749.66;;;10.90;45.80
71778;BME280;59609;52.430;4.668;2023-02-26T13:54:49;102755.75;;;10.37;45.22
71778;BME280;59609;52.430;4.668;2023-02-26T13:57:32;102759.19;;;10.27;44.00
71778;BME280;59609;52.430;4.668;2023-02-26T14:00:05;102747.47;;;10.37;44.67
71778;BME280;59609;52.430;4.668;2023-02-26T14:02:49;102750.16;;;10.84;44.37
71778;BME280;59609;52.430;4.668;2023-02-26T14:10:45;102755.84;;;10.35;45.62
71778;BME280;59609;52.430;4.668;2023-02-26T14:13:19;102763.53;;;10.43;47.70
71778;BME280;59609;52.430;4.668;2023-02-26T14:18:36;102759.56;;;10.23;46.83
71778;BME280;59609;52.430;4.668;2023-02-26T14:23:57;102769.06;;;9.82;47.89
71778;BME280;59609;52.430;4.668;2023-02-26T14:26:27;102767.59;;;9.90;47.31
71778;BME280;59609;52.430;4.668;2023-02-26T14:31:24;102772.25;;;10.60;44.75
71778;BME280;59609;52.430;4.668;2023-02-26T14:36:34;102770.91;;;10.42;44.86
71778;BME280;59609;52.430;4.668;2023-02-26T14:39:01;102777.19;;;9.84;45.37
71778;BME280;59609;52.430;4.668;2023-02-26T14:41:35;102772.69;;;9.83;45.43
71778;BME280;59609;52.430;4.668;2023-02-26T14:46:32;102770.69;;;9.49;47.40
71778;BME280;59609;52.430;4.668;2023-02-26T14:48:58;102777.44;;;9.19;45.85
71778;BME280;59609;52.430;4.668;2023-02-26T14:57:13;102783.19;;;9.65;46.84
71778;BME280;59609;52.430;4.668;2023-02-26T15:02:18;102786.56;;;9.20;46.94
71778;BME280;59609;52.430;4.668;2023-02-26T15:21:46;102798.78;;;9.03;50.82
71778;BME280;59609;52.430;4.668;2023-02-26T15:24:14;102795.22;;;8.89;50.94
71778;BME280;59609;52.430;4.668;2023-02-26T15:26:50;102793.81;;;8.96;49.51
71778;BME280;59609;52.430;4.668;2023-02-26T15:29:16;102781.47;;;8.63;50.34
71778;BME280;59609;52.430;4.668;2023-02-26T15:31:46;102791.50;;;9.27;49.40
71778;BME280;59609;52.430;4.668;2023-02-26T15:34:15;102788.47;;;9.68;49.15
71778;BME280;59609;52.430;4.668;2023-02-26T15:36:45;102798.75;;;9.41;49.99
71778;BME280;59609;52.430;4.668;2023-02-26T15:39:14;102802.72;;;8.99;50.30
71778;BME280;59609;52.430;4.668;2023-02-26T15:41:40;102804.59;;;8.47;52.03
71778;BME280;59609;52.430;4.668;2023-02-26T15:44:08;102809.84;;;8.37;52.63
71778;BME280;59609;52.430;4.668;2023-02-26T15:46:40;102815.44;;;8.21;52.98
71778;BME280;59609;52.430;4.668;2023-02-26T15:49:09;102814.94;;;8.02;53.07
71778;BME280;59609;52.430;4.668;2023-02-26T15:51:37;102814.41;;;8.10;52.84
71778;BME280;59609;52.430;4.668;2023-02-26T15:54:03;102816.91;;;8.27;52.78
71778;BME280;59609;52.430;4.668;2023-02-26T15:56:33;102807.72;;;8.28;53.06
71778;BME280;59609;52.430;4.668;2023-02-26T15:59:12;102806.66;;;8.31;52.87
71778;BME280;59609;52.430;4.668;2023-02-26T16:01:41;102807.66;;;8.42;52.31
71778;BME280;59609;52.430;4.668;2023-02-26T16:04:12;102810.28;;;8.17;53.77
71778;BME280;59609;52.430;4.668;2023-02-26T16:06:46;102812.75;;;8.07;53.20